Time;durP1;ratioP1;P1;durP2;ratioP2;P2;SDS_P1;SDS_P2;PMS_P1;PMS_P2;Temp;Humidity;BMP_temperature;BMP_pressure;BME280_temperature;BME280_humidity;BME280_pressure;Samples;Min_cycle;Max_cycle;Signal;HPM_P1;HPM_P2
2023/04/14 00:01:17;;;;;;;10.67;5.80;;;;;;;;;;5021891;28;20260;-85
2023/04/14 00:03:43;;;;;;;11.13;5.75;;;;;;;;;;5023397;28;20431;-85
2023/04/14 00:06:10;;;;;;;9.50;4.77;;;;;;;;;;5018565;28;20180;-85
2023/04/14 00:08:36;;;;;;;7.73;3.80;;;;;;;;;;5015654;28;20185;-85
2023/04/14 00:11:02;;;;;;;8.03;3.50;;;;;;;;;;5014645;28;20239;-85
2023/04/14 00:13:28;;;;;;;6.87;3.20;;;;;;;;;;5026518;28;20204;-85
2023/04/14 00:15:55;;;;;;;7.27;3.20;;;;;;;;;;5029963;28;20177;-83
2023/04/14 00:18:21;;;;;;;6.93;3.30;;;;;;;;;;5020429;28;20220;-83
2023/04/14 00:20:47;;;;;;;7.53;3.00;;;;;;;;;;5033302;28;20191;-83
2023/04/14 00:23:13;;;;;;;8.23;3.07;;;;;;;;;;5037326;28;20195;-83
2023/04/14 00:25:39;;;;;;;9.33;3.70;;;;;;;;;;5048560;28;20239;-83
2023/04/14 00:28:05;;;;;;;8.67;3.60;;;;;;;;;;5031357;28;20271;-85
2023/04/14 00:30:31;;;;;;;6.77;3.43;;;;;;;;;;5034184;28;20196;-85
2023/04/14 00:32:57;;;;;;;7.87;3.27;;;;;;;;;;5027960;28;20204;-85
2023/04/14 00:35:24;;;;;;;10.07;3.43;;;;;;;;;;5027211;28;20189;-84
2023/04/14 00:37:52;;;;;;;7.00;3.10;;;;;;;;;;5031813;28;20181;-85
2023/04/14 00:40:18;;;;;;;9.50;3.63;;;;;;;;;;5013119;28;20185;-85
2023/04/14 00:42:47;;;;;;;7.13;3.13;;;;;;;;;;5012233;28;20216;-82
2023/04/14 00:45:14;;;;;;;7.17;3.13;;;;;;;;;;5023805;28;20184;-83
2023/04/14 00:47:41;;;;;;;7.83;3.10;;;;;;;;;;5016911;28;20196;-82
2023/04/14 00:50:08;;;;;;;7.43;3.93;;;;;;;;;;5023114;28;20188;-82
2023/04/14 00:52:36;;;;;;;7.67;4.27;;;;;;;;;;5032905;28;20226;-83
2023/04/14 00:55:04;;;;;;;12.87;5.13;;;;;;;;;;5038974;28;20203;-83
2023/04/14 00:57:30;;;;;;;9.73;6.03;;;;;;;;;;5038509;28;20204;-85
2023/04/14 00:59:57;;;;;;;11.27;5.77;;;;;;;;;;5035457;28;20176;-84
2023/04/14 01:02:24;;;;;;;11.77;6.10;;;;;;;;;;5026295;28;20248;-85
2023/04/14 01:04:54;;;;;;;11.40;5.83;;;;;;;;;;5034791;28;20204;-84
2023/04/14 01:07:20;;;;;;;8.10;4.87;;;;;;;;;;5034005;28;20185;-85
2023/04/14 01:09:46;;;;;;;10.70;4.10;;;;;;;;;;5032074;28;20173;-85
2023/04/14 01:12:31;;;;;;;8.77;5.40;;;;;;;;;;5015059;28;20260;-85
2023/04/14 01:14:57;;;;;;;7.83;4.87;;;;;;;;;;5017047;28;20199;-85
2023/04/14 01:17:46;;;;;;;7.93;4.10;;;;;;;;;;5044389;28;20176;-85
2023/04/14 01:20:31;;;;;;;6.17;3.20;;;;;;;;;;5001593;28;20260;-86
2023/04/14 01:23:08;;;;;;;8.40;3.47;;;;;;;;;;5033418;28;20184;-85
2023/04/14 01:25:46;;;;;;;5.23;2.70;;;;;;;;;;5038134;28;20274;-85
2023/04/14 01:28:24;;;;;;;4.80;2.83;;;;;;;;;;5031559;28;20193;-85
2023/04/14 01:31:02;;;;;;;5.50;3.30;;;;;;;;;;5037509;28;20497;-85
2023/04/14 01:33:30;;;;;;;6.10;3.40;;;;;;;;;;5037101;28;20214;-83
2023/04/14 01:35:58;;;;;;;7.47;2.83;;;;;;;;;;5036476;28;20183;-84
2023/04/14 01:38:29;;;;;;;5.30;3.10;;;;;;;;;;5037371;28;20184;-85
2023/04/14 01:41:00;;;;;;;4.73;2.90;;;;;;;;;;5036105;28;20189;-85
2023/04/14 01:43:27;;;;;;;7.10;2.93;;;;;;;;;;5037283;28;20184;-85
2023/04/14 01:45:57;;;;;;;5.60;3.20;;;;;;;;;;5052926;28;20222;-85
2023/04/14 01:48:24;;;;;;;4.00;2.90;;;;;;;;;;5039339;28;20184;-85
2023/04/14 01:50:50;;;;;;;5.33;2.90;;;;;;;;;;5050618;28;20282;-85
2023/04/14 01:53:17;;;;;;;6.50;3.40;;;;;;;;;;5024537;28;20200;-85
2023/04/14 01:55:44;;;;;;;6.20;3.00;;;;;;;;;;5041378;28;20222;-85
2023/04/14 01:58:10;;;;;;;5.97;3.10;;;;;;;;;;5032408;28;20106;-85
2023/04/14 02:00:39;;;;;;;5.43;3.10;;;;;;;;;;5037423;28;20184;-85
2023/04/14 02:03:06;;;;;;;7.37;3.20;;;;;;;;;;5019471;28;20188;-85
2023/04/14 02:05:34;;;;;;;6.10;3.13;;;;;;;;;;5020836;28;20239;-85
2023/04/14 02:08:01;;;;;;;7.03;3.20;;;;;;;;;;5036305;28;20291;-85
2023/04/14 02:10:27;;;;;;;4.30;3.10;;;;;;;;;;5043125;28;20184;-84
2023/04/14 02:12:56;;;;;;;6.87;3.73;;;;;;;;;;5034147;28;20220;-85
2023/04/14 02:15:23;;;;;;;5.97;3.33;;;;;;;;;;5021131;28;20270;-85
2023/04/14 02:17:50;;;;;;;7.27;3.90;;;;;;;;;;5048931;28;20224;-84
2023/04/14 02:20:16;;;;;;;4.57;3.17;;;;;;;;;;5027702;28;20206;-84
2023/04/14 02:22:42;;;;;;;6.33;3.60;;;;;;;;;;5036899;28;20298;-84
2023/04/14 02:25:08;;;;;;;10.20;4.00;;;;;;;;;;5033704;28;20188;-85
2023/04/14 02:27:42;;;;;;;6.70;3.50;;;;;;;;;;5022745;28;20238;-84
2023/04/14 02:30:13;;;;;;;6.90;3.60;;;;;;;;;;5035345;28;20292;-84
2023/04/14 02:32:40;;;;;;;7.80;3.73;;;;;;;;;;5035373;28;20263;-84
2023/04/14 02:35:10;;;;;;;7.17;4.23;;;;;;;;;;5017831;28;20186;-84
2023/04/14 02:37:38;;;;;;;8.77;4.37;;;;;;;;;;5035332;28;20271;-84
2023/04/14 02:40:10;;;;;;;6.93;4.00;;;;;;;;;;5035873;28;20199;-85
2023/04/14 02:42:39;;;;;;;9.40;4.27;;;;;;;;;;5033101;28;20188;-84
2023/04/14 02:45:06;;;;;;;8.17;4.10;;;;;;;;;;5032524;28;20184;-84
2023/04/14 02:47:34;;;;;;;9.70;4.73;;;;;;;;;;5031904;28;20203;-84
2023/04/14 02:50:04;;;;;;;10.23;4.90;;;;;;;;;;5032161;28;20188;-85
2023/04/14 02:52:31;;;;;;;9.48;5.53;;;;;;;;;;5029941;28;20417;-84
2023/04/14 02:54:58;;;;;;;8.67;4.90;;;;;;;;;;5032372;28;20245;-85
2023/04/14 02:57:25;;;;;;;10.63;5.23;;;;;;;;;;5032319;28;20195;-85
2023/04/14 02:59:52;;;;;;;8.80;4.70;;;;;;;;;;5030225;28;20185;-85
2023/04/14 03:02:18;;;;;;;9.30;5.13;;;;;;;;;;5033911;28;20186;-85
2023/04/14 03:04:45;;;;;;;11.85;6.85;;;;;;;;;;5031725;28;20472;-85
2023/04/14 03:12:41;;;;;;;8.87;5.80;;;;;;;;;;4996185;28;20230;-75
2023/04/14 03:15:09;;;;;;;12.10;5.43;;;;;;;;;;4991454;28;20198;-75
2023/04/14 03:17:36;;;;;;;8.77;5.50;;;;;;;;;;4974936;28;20280;-76
2023/04/14 03:20:03;;;;;;;11.70;5.73;;;;;;;;;;4960160;28;20190;-76
2023/04/14 03:22:29;;;;;;;11.17;5.37;;;;;;;;;;4992359;28;20245;-76
2023/04/14 03:24:57;;;;;;;9.83;5.60;;;;;;;;;;4976548;28;20220;-77
2023/04/14 03:27:26;;;;;;;11.40;5.53;;;;;;;;;;4975815;28;20200;-76
2023/04/14 03:29:54;;;;;;;14.60;5.80;;;;;;;;;;5000829;28;20194;-76
2023/04/14 03:32:21;;;;;;;11.60;6.40;;;;;;;;;;4974087;28;20191;-77
2023/04/14 03:34:54;;;;;;;10.37;5.93;;;;;;;;;;4982914;28;20234;-82
2023/04/14 03:37:22;;;;;;;8.70;6.40;;;;;;;;;;4972304;28;20197;-82
2023/04/14 03:39:50;;;;;;;7.23;5.50;;;;;;;;;;4988764;28;20194;-82
2023/04/14 03:42:19;;;;;;;10.20;6.20;;;;;;;;;;4998206;28;20185;-82
2023/04/14 03:44:50;;;;;;;9.33;6.00;;;;;;;;;;4961382;28;20199;-82
2023/04/14 03:47:20;;;;;;;7.80;5.40;;;;;;;;;;4957518;28;20198;-82
2023/04/14 03:49:48;;;;;;;12.37;6.60;;;;;;;;;;4946170;28;20203;-82
2023/04/14 03:52:15;;;;;;;10.23;6.43;;;;;;;;;;4948404;28;20226;-76
2023/04/14 03:54:42;;;;;;;10.80;6.30;;;;;;;;;;4920783;28;20220;-76
2023/04/14 03:57:09;;;;;;;11.97;6.73;;;;;;;;;;4943970;29;20200;-76
2023/04/14 03:59:36;;;;;;;11.60;6.40;;;;;;;;;;4950597;28;20247;-75
2023/04/14 04:02:04;;;;;;;9.87;6.33;;;;;;;;;;4972785;28;20201;-76
2023/04/14 04:04:30;;;;;;;13.60;6.37;;;;;;;;;;4972981;28;20218;-76
2023/04/14 04:06:57;;;;;;;10.03;5.97;;;;;;;;;;4972657;28;20199;-76
2023/04/14 04:09:26;;;;;;;9.67;6.20;;;;;;;;;;4972096;28;20186;-82
2023/04/14 04:11:53;;;;;;;9.00;6.40;;;;;;;;;;4959425;28;20347;-82
2023/04/14 04:14:20;;;;;;;10.77;6.67;;;;;;;;;;4972757;28;20226;-82
2023/04/14 04:16:53;;;;;;;10.17;6.83;;;;;;;;;;5009167;28;20213;-83
2023/04/14 04:19:21;;;;;;;11.37;6.97;;;;;;;;;;4996052;28;20264;-83
2023/04/14 04:21:49;;;;;;;11.20;7.10;;;;;;;;;;4996423;28;20182;-82
2023/04/14 04:24:16;;;;;;;10.73;7.43;;;;;;;;;;4999334;28;20182;-82
2023/04/14 04:26:42;;;;;;;12.50;7.53;;;;;;;;;;5012674;28;20193;-80
2023/04/14 04:29:09;;;;;;;10.43;6.97;;;;;;;;;;4977761;28;20236;-80
2023/04/14 04:31:35;;;;;;;11.00;7.53;;;;;;;;;;5010990;28;20189;-81
2023/04/14 04:34:02;;;;;;;11.63;7.67;;;;;;;;;;5000582;28;20213;-81
2023/04/14 04:36:30;;;;;;;11.87;8.20;;;;;;;;;;4999972;28;20224;-81
2023/04/14 04:38:57;;;;;;;11.93;7.17;;;;;;;;;;5012666;28;20174;-75
2023/04/14 04:41:24;;;;;;;11.97;8.03;;;;;;;;;;5021883;28;20181;-77
2023/04/14 04:43:50;;;;;;;11.40;7.67;;;;;;;;;;5008714;28;20188;-76
2023/04/14 04:46:22;;;;;;;12.90;7.80;;;;;;;;;;5015931;28;20196;-76
2023/04/14 04:48:50;;;;;;;13.20;8.00;;;;;;;;;;5017128;28;20336;-76
2023/04/14 04:51:17;;;;;;;12.47;8.13;;;;;;;;;;5000338;28;20205;-76
2023/04/14 04:53:43;;;;;;;11.50;7.53;;;;;;;;;;4999366;28;20216;-81
2023/04/14 04:56:10;;;;;;;12.27;8.57;;;;;;;;;;4990318;28;20181;-81
2023/04/14 04:58:36;;;;;;;17.33;9.07;;;;;;;;;;5014830;28;20181;-82
2023/04/14 05:01:08;;;;;;;13.10;9.00;;;;;;;;;;5035859;28;20181;-82
2023/04/14 05:03:35;;;;;;;21.67;9.60;;;;;;;;;;5020236;28;20244;-81
2023/04/14 05:06:01;;;;;;;14.30;9.23;;;;;;;;;;4983354;28;20285;-82
2023/04/14 05:08:27;;;;;;;17.30;9.43;;;;;;;;;;5016918;28;20244;-82
2023/04/14 05:10:53;;;;;;;17.63;9.40;;;;;;;;;;5011111;28;20193;-82
2023/04/14 05:13:21;;;;;;;13.63;8.83;;;;;;;;;;4999745;28;20209;-81
2023/04/14 05:15:47;;;;;;;12.93;9.03;;;;;;;;;;4983405;28;20181;-76
2023/04/14 05:18:13;;;;;;;14.27;8.73;;;;;;;;;;4999368;28;20182;-76
2023/04/14 05:20:39;;;;;;;17.10;9.73;;;;;;;;;;4998943;28;20193;-76
2023/04/14 05:23:06;;;;;;;14.57;9.80;;;;;;;;;;4983359;28;20197;-77
2023/04/14 05:25:32;;;;;;;12.27;9.70;;;;;;;;;;5016719;28;20185;-76
2023/04/14 05:27:58;;;;;;;12.53;9.80;;;;;;;;;;4999459;28;20303;-76
2023/04/14 05:30:24;;;;;;;14.53;9.27;;;;;;;;;;4979892;28;20209;-76
2023/04/14 05:32:50;;;;;;;12.03;9.50;;;;;;;;;;5016023;28;20263;-82
2023/04/14 05:35:16;;;;;;;14.73;9.90;;;;;;;;;;5016807;28;20173;-82
2023/04/14 05:37:42;;;;;;;15.70;10.27;;;;;;;;;;5015589;28;20185;-82
2023/04/14 05:40:08;;;;;;;16.70;12.55;;;;;;;;;;4998813;28;20426;-82
2023/04/14 05:42:34;;;;;;;17.98;13.50;;;;;;;;;;4985132;28;20431;-81
2023/04/14 05:45:00;;;;;;;20.48;13.70;;;;;;;;;;4987192;28;20502;-82
2023/04/14 05:47:27;;;;;;;17.50;13.27;;;;;;;;;;5014275;28;20471;-82
2023/04/14 05:49:53;;;;;;;16.60;13.67;;;;;;;;;;4981510;28;20419;-81
2023/04/14 05:52:19;;;;;;;20.23;14.40;;;;;;;;;;5015530;28;20449;-81
2023/04/14 05:54:45;;;;;;;20.45;14.60;;;;;;;;;;5003493;28;20447;-82
2023/04/14 05:57:11;;;;;;;20.60;14.17;;;;;;;;;;4998100;28;20493;-82
2023/04/14 05:59:37;;;;;;;19.83;13.93;;;;;;;;;;4988619;28;20570;-82
2023/04/14 06:02:05;;;;;;;18.02;14.55;;;;;;;;;;4978494;28;20448;-76
2023/04/14 06:04:32;;;;;;;20.55;14.55;;;;;;;;;;4975780;28;20411;-76
2023/04/14 06:06:58;;;;;;;20.00;14.45;;;;;;;;;;4981721;28;20419;-76
2023/04/14 06:09:24;;;;;;;18.15;14.13;;;;;;;;;;4990522;28;20487;-76
2023/04/14 06:11:50;;;;;;;16.37;12.60;;;;;;;;;;4999688;28;20237;-76
2023/04/14 06:14:16;;;;;;;18.77;13.95;;;;;;;;;;5000587;28;20447;-76
2023/04/14 06:16:42;;;;;;;17.98;13.73;;;;;;;;;;5012895;28;20411;-76
2023/04/14 06:19:09;;;;;;;17.85;13.15;;;;;;;;;;5008522;28;20431;-75
2023/04/14 06:21:35;;;;;;;18.50;13.57;;;;;;;;;;5013368;28;20422;-81
2023/04/14 06:24:01;;;;;;;14.60;12.57;;;;;;;;;;4981337;28;20411;-81
2023/04/14 06:26:27;;;;;;;14.17;11.00;;;;;;;;;;4997478;28;20193;-81
2023/04/14 06:28:53;;;;;;;16.70;11.85;;;;;;;;;;4979342;28;20439;-81
2023/04/14 06:31:19;;;;;;;16.77;10.70;;;;;;;;;;4997295;28;20189;-81
2023/04/14 06:33:46;;;;;;;16.57;9.73;;;;;;;;;;5013499;28;20213;-81
2023/04/14 06:36:13;;;;;;;17.05;11.60;;;;;;;;;;5014130;28;20406;-81
2023/04/14 06:38:39;;;;;;;14.45;11.43;;;;;;;;;;4988592;28;20563;-80
2023/04/14 06:41:05;;;;;;;16.60;10.63;;;;;;;;;;4985998;28;20486;-81
2023/04/14 06:43:32;;;;;;;15.90;11.10;;;;;;;;;;4989468;28;20604;-81
2023/04/14 06:45:57;;;;;;;15.93;10.27;;;;;;;;;;5002539;28;20455;-82
2023/04/14 06:48:24;;;;;;;14.73;9.82;;;;;;;;;;5009309;28;20431;-82
2023/04/14 06:50:54;;;;;;;15.85;9.93;;;;;;;;;;5011997;28;20724;-82
2023/04/14 06:53:20;;;;;;;15.98;9.27;;;;;;;;;;5011888;28;20458;-82
2023/04/14 06:55:48;;;;;;;14.47;9.43;;;;;;;;;;5013434;28;20555;-82
2023/04/14 06:58:14;;;;;;;12.77;8.82;;;;;;;;;;4996524;28;20435;-83
2023/04/14 07:00:40;;;;;;;14.65;9.55;;;;;;;;;;5011795;28;20414;-82
2023/04/14 07:03:06;;;;;;;11.50;8.38;;;;;;;;;;4996686;28;20418;-82
2023/04/14 07:05:32;;;;;;;12.93;9.13;;;;;;;;;;4996227;28;20423;-82
2023/04/14 07:07:58;;;;;;;14.73;9.70;;;;;;;;;;5012683;28;20437;-83
2023/04/14 07:10:24;;;;;;;14.68;9.30;;;;;;;;;;4995581;28;20416;-83
2023/04/14 07:12:50;;;;;;;13.40;8.88;;;;;;;;;;4993695;28;20465;-77
2023/04/14 07:15:16;;;;;;;12.45;9.15;;;;;;;;;;4994005;28;20416;-77
2023/04/14 07:17:42;;;;;;;12.13;8.82;;;;;;;;;;5023959;23;20486;-81
2023/04/14 07:20:09;;;;;;;13.07;9.13;;;;;;;;;;5006674;28;20423;-84
2023/04/14 07:22:35;;;;;;;13.33;8.40;;;;;;;;;;5012862;28;20216;-85
2023/04/14 07:25:01;;;;;;;15.17;8.20;;;;;;;;;;4995478;28;20223;-85
2023/04/14 07:27:27;;;;;;;15.23;9.20;;;;;;;;;;4989539;28;20443;-86
2023/04/14 07:29:53;;;;;;;16.92;8.50;;;;;;;;;;4994123;28;20434;-80
2023/04/14 07:32:20;;;;;;;13.55;9.43;;;;;;;;;;5004686;28;20480;-80
2023/04/14 07:34:46;;;;;;;19.77;9.43;;;;;;;;;;4995517;28;20493;-79
2023/04/14 07:37:12;;;;;;;13.23;9.37;;;;;;;;;;5012651;28;20407;-79
2023/04/14 07:39:39;;;;;;;14.75;9.50;;;;;;;;;;5001270;28;20433;-79
2023/04/14 07:42:05;;;;;;;11.33;8.20;;;;;;;;;;5014549;28;20313;-80
2023/04/14 07:44:32;;;;;;;14.30;9.10;;;;;;;;;;5015074;28;20477;-80
2023/04/14 07:46:58;;;;;;;14.17;8.80;;;;;;;;;;5025535;28;20185;-81
2023/04/14 07:49:24;;;;;;;15.60;8.47;;;;;;;;;;4998796;28;20212;-80
2023/04/14 07:51:50;;;;;;;11.33;8.10;;;;;;;;;;5033436;28;20185;-81
2023/04/14 07:54:16;;;;;;;13.63;8.02;;;;;;;;;;5007175;28;20429;-82
2023/04/14 07:56:42;;;;;;;12.43;6.97;;;;;;;;;;5017062;28;20176;-80
2023/04/14 07:59:08;;;;;;;13.85;7.57;;;;;;;;;;5024268;28;20452;-80
2023/04/14 08:01:34;;;;;;;15.43;7.00;;;;;;;;;;5001548;28;20188;-82
2023/04/14 08:04:00;;;;;;;14.43;6.10;;;;;;;;;;5019801;28;20214;-83
2023/04/14 08:06:27;;;;;;;14.63;6.90;;;;;;;;;;5015839;28;20185;-82
2023/04/14 08:08:53;;;;;;;11.88;6.05;;;;;;;;;;5000852;28;20423;-82
2023/04/14 08:11:19;;;;;;;13.60;6.43;;;;;;;;;;5004875;28;20200;-83
2023/04/14 08:13:45;;;;;;;15.63;6.87;;;;;;;;;;5017120;28;20205;-83
2023/04/14 08:16:11;;;;;;;10.60;6.38;;;;;;;;;;4999419;28;20439;-83
2023/04/14 08:18:39;;;;;;;12.55;6.72;;;;;;;;;;5016880;28;20455;-83
2023/04/14 08:21:05;;;;;;;15.10;6.90;;;;;;;;;;5029049;28;20441;-83
2023/04/14 08:23:31;;;;;;;15.68;6.95;;;;;;;;;;5017676;28;20424;-83
2023/04/14 08:25:57;;;;;;;15.77;6.83;;;;;;;;;;5001866;28;20182;-83
2023/04/14 08:28:23;;;;;;;14.40;6.60;;;;;;;;;;4998357;28;20434;-83
2023/04/14 08:30:49;;;;;;;16.25;7.13;;;;;;;;;;5017105;28;20537;-83
2023/04/14 08:33:15;;;;;;;13.23;6.43;;;;;;;;;;5011888;28;20437;-83
2023/04/14 08:35:41;;;;;;;14.77;6.93;;;;;;;;;;5035812;28;20448;-83
2023/04/14 08:38:08;;;;;;;14.18;6.22;;;;;;;;;;5015432;28;20430;-83
2023/04/14 08:40:41;;;;;;;12.18;6.00;;;;;;;;;;4982903;28;20407;-83
2023/04/14 08:43:07;;;;;;;12.88;5.50;;;;;;;;;;5030086;28;20411;-82
2023/04/14 08:45:34;;;;;;;12.85;5.30;;;;;;;;;;5000861;28;20418;-82
2023/04/14 08:48:01;;;;;;;9.30;4.17;;;;;;;;;;5001961;28;20208;-83
2023/04/14 08:50:37;;;;;;;10.05;3.88;;;;;;;;;;4999519;28;20431;-83
2023/04/14 08:53:04;;;;;;;11.13;4.15;;;;;;;;;;5033178;28;20487;-83
2023/04/14 08:55:32;;;;;;;13.02;3.85;;;;;;;;;;5035986;28;20425;-83
2023/04/14 08:58:01;;;;;;;9.45;3.67;;;;;;;;;;5035014;28;20405;-84
2023/04/14 09:00:27;;;;;;;11.00;3.92;;;;;;;;;;5018364;28;20415;-84
2023/04/14 09:02:53;;;;;;;8.60;4.18;;;;;;;;;;5000957;28;20469;-84
2023/04/14 09:05:20;;;;;;;6.80;3.17;;;;;;;;;;5036067;28;20901;-83
2023/04/14 09:07:46;;;;;;;8.03;3.30;;;;;;;;;;5018789;28;20504;-83
2023/04/14 09:10:12;;;;;;;8.33;3.30;;;;;;;;;;5018894;28;20527;-83
2023/04/14 09:12:39;;;;;;;8.13;3.30;;;;;;;;;;5014196;28;20462;-83
2023/04/14 09:15:05;;;;;;;6.15;2.47;;;;;;;;;;5015355;28;20411;-83
2023/04/14 09:17:32;;;;;;;8.80;3.25;;;;;;;;;;5025959;28;20466;-83
2023/04/14 09:19:59;;;;;;;8.57;2.67;;;;;;;;;;5016692;28;20217;-83
2023/04/14 09:22:25;;;;;;;8.43;3.08;;;;;;;;;;5010540;28;20423;-81
2023/04/14 09:24:51;;;;;;;5.33;2.73;;;;;;;;;;5035633;28;20192;-81
2023/04/14 09:27:17;;;;;;;7.90;2.90;;;;;;;;;;5018620;28;20279;-83
2023/04/14 09:29:43;;;;;;;8.77;3.03;;;;;;;;;;5004993;28;20464;-83
2023/04/14 09:32:11;;;;;;;8.70;2.70;;;;;;;;;;5025688;28;20189;-83
2023/04/14 09:34:46;;;;;;;6.13;3.05;;;;;;;;;;4996283;28;20546;-83
2023/04/14 09:37:12;;;;;;;8.63;2.70;;;;;;;;;;5015418;28;20295;-81
2023/04/14 09:39:47;;;;;;;8.60;2.93;;;;;;;;;;4996000;28;20181;-83
2023/04/14 09:42:13;;;;;;;6.80;2.57;;;;;;;;;;5010704;28;20258;-82
2023/04/14 09:44:55;;;;;;;6.80;2.70;;;;;;;;;;5004963;28;20255;-82
2023/04/14 09:47:23;;;;;;;5.83;2.63;;;;;;;;;;5030168;28;20195;-83
2023/04/14 09:49:56;;;;;;;6.80;2.37;;;;;;;;;;5005582;28;20185;-83
2023/04/14 09:52:23;;;;;;;4.77;2.20;;;;;;;;;;5011841;28;20196;-83
2023/04/14 09:54:55;;;;;;;7.43;2.53;;;;;;;;;;5026483;28;20220;-83
2023/04/14 09:57:27;;;;;;;8.03;2.10;;;;;;;;;;5015143;28;20177;-83
2023/04/14 09:59:53;;;;;;;7.37;2.53;;;;;;;;;;5018870;28;20196;-87
2023/04/14 10:02:19;;;;;;;5.63;2.10;;;;;;;;;;5018891;28;20187;-88
2023/04/14 10:04:45;;;;;;;4.30;2.27;;;;;;;;;;5034648;28;20184;-88
2023/04/14 10:07:11;;;;;;;7.50;2.50;;;;;;;;;;5035051;28;20235;-88
2023/04/14 10:09:39;;;;;;;7.27;2.50;;;;;;;;;;5029322;28;20208;-88
2023/04/14 10:12:09;;;;;;;9.30;2.70;;;;;;;;;;5034646;28;20180;-88
2023/04/14 10:14:42;;;;;;;6.55;2.38;;;;;;;;;;5017340;28;20511;-85
2023/04/14 10:17:08;;;;;;;6.63;2.60;;;;;;;;;;5035600;28;20171;-84
2023/04/14 10:19:35;;;;;;;8.10;2.20;;;;;;;;;;5034124;28;20437;-83
2023/04/14 10:22:01;;;;;;;6.17;2.17;;;;;;;;;;5017409;28;20267;-83
2023/04/14 10:24:27;;;;;;;5.10;1.97;;;;;;;;;;5035034;28;20177;-83
2023/04/14 10:26:54;;;;;;;5.87;2.00;;;;;;;;;;5001661;28;20182;-83
2023/04/14 10:29:21;;;;;;;4.03;1.80;;;;;;;;;;5002400;28;20177;-83
2023/04/14 10:31:55;;;;;;;5.37;1.80;;;;;;;;;;5018295;28;20271;-84
2023/04/14 10:34:23;;;;;;;5.17;1.70;;;;;;;;;;5016544;28;20212;-82
2023/04/14 10:36:49;;;;;;;5.67;1.87;;;;;;;;;;4998105;28;20180;-83
2023/04/14 10:39:20;;;;;;;4.83;1.87;;;;;;;;;;4981702;28;20189;-83
2023/04/14 10:41:47;;;;;;;6.60;1.90;;;;;;;;;;5014514;28;20182;-82
2023/04/14 10:44:27;;;;;;;4.40;2.07;;;;;;;;;;4997223;28;20292;-89
2023/04/14 10:46:55;;;;;;;4.77;1.80;;;;;;;;;;5015340;28;20193;-88
2023/04/14 10:49:25;;;;;;;5.30;1.90;;;;;;;;;;5015525;28;20178;-83
2023/04/14 10:51:51;;;;;;;4.57;1.83;;;;;;;;;;5014439;28;20189;-80
2023/04/14 10:54:18;;;;;;;4.23;1.80;;;;;;;;;;5017688;28;20302;-80
2023/04/14 10:57:02;;;;;;;2.77;1.50;;;;;;;;;;5021280;28;20181;-80
2023/04/14 10:59:28;;;;;;;5.37;1.90;;;;;;;;;;5016301;28;20196;-80
2023/04/14 11:01:56;;;;;;;6.07;2.03;;;;;;;;;;5016065;28;20185;-81
2023/04/14 11:04:22;;;;;;;5.07;1.83;;;;;;;;;;5011629;28;20189;-80
2023/04/14 11:06:50;;;;;;;3.60;1.80;;;;;;;;;;5012592;28;20192;-80
2023/04/14 11:09:23;;;;;;;7.35;2.13;;;;;;;;;;5017878;28;20479;-80
2023/04/14 11:11:49;;;;;;;5.97;2.30;;;;;;;;;;5033281;28;20421;-81
2023/04/14 11:14:15;;;;;;;5.10;2.20;;;;;;;;;;5031695;28;20461;-80
2023/04/14 11:16:44;;;;;;;5.45;2.20;;;;;;;;;;5015925;28;20516;-83
2023/04/14 11:19:14;;;;;;;6.00;2.10;;;;;;;;;;5003620;28;20435;-83
2023/04/14 11:21:52;;;;;;;6.80;2.70;;;;;;;;;;5006497;28;20419;-84
2023/04/14 11:24:18;;;;;;;9.65;2.65;;;;;;;;;;5011676;28;20415;-85
2023/04/14 11:26:44;;;;;;;8.52;2.70;;;;;;;;;;5015454;28;20511;-85
2023/04/14 11:29:11;;;;;;;5.90;2.30;;;;;;;;;;5015825;28;20181;-85
2023/04/14 11:31:37;;;;;;;6.03;2.33;;;;;;;;;;5020735;28;20405;-85
2023/04/14 11:34:05;;;;;;;5.47;2.40;;;;;;;;;;5021307;28;20468;-85
2023/04/14 11:36:31;;;;;;;8.65;2.75;;;;;;;;;;5011888;28;20422;-85
2023/04/14 11:38:58;;;;;;;7.47;2.58;;;;;;;;;;5014021;28;20414;-89
2023/04/14 11:41:25;;;;;;;6.60;2.83;;;;;;;;;;5012327;28;20402;-89
2023/04/14 11:43:51;;;;;;;6.22;2.40;;;;;;;;;;5013168;28;20415;-84
2023/04/14 11:46:23;;;;;;;5.40;2.33;;;;;;;;;;4997480;28;20422;-85
2023/04/14 11:48:58;;;;;;;7.53;2.58;;;;;;;;;;4983193;28;20435;-85
2023/04/14 11:51:29;;;;;;;5.78;2.70;;;;;;;;;;5015598;28;20497;-85
2023/04/14 11:53:56;;;;;;;6.95;2.70;;;;;;;;;;5021313;28;20505;-85
2023/04/14 11:56:22;;;;;;;5.82;2.70;;;;;;;;;;5029771;28;20401;-89
2023/04/14 11:58:48;;;;;;;7.85;2.85;;;;;;;;;;4995845;28;20407;-88
2023/04/14 12:01:14;;;;;;;6.00;2.40;;;;;;;;;;5014969;28;20412;-89
2023/04/14 12:03:40;;;;;;;6.63;2.93;;;;;;;;;;5006527;28;20422;-89
2023/04/14 12:06:06;;;;;;;5.97;2.63;;;;;;;;;;5010393;28;20426;-89
2023/04/14 12:08:33;;;;;;;6.07;2.67;;;;;;;;;;4980976;28;20450;-90
2023/04/14 12:11:15;;;;;;;6.45;2.92;;;;;;;;;;5004138;28;20447;-86
2023/04/14 12:13:42;;;;;;;6.90;2.85;;;;;;;;;;5013700;28;20423;-86
2023/04/14 12:16:08;;;;;;;6.82;2.95;;;;;;;;;;5026585;28;20424;-89
2023/04/14 12:18:34;;;;;;;8.03;2.20;;;;;;;;;;5016399;28;20236;-88
2023/04/14 12:21:04;;;;;;;6.27;2.50;;;;;;;;;;4996829;28;20196;-88
2023/04/14 12:23:34;;;;;;;5.70;2.40;;;;;;;;;;4996426;28;20404;-87
2023/04/14 12:26:00;;;;;;;6.30;2.50;;;;;;;;;;5006240;28;20417;-88
2023/04/14 12:28:27;;;;;;;6.90;3.00;;;;;;;;;;4996198;28;20482;-88
2023/04/14 12:30:56;;;;;;;6.47;2.80;;;;;;;;;;4980306;28;20441;-87
2023/04/14 12:33:22;;;;;;;6.95;2.70;;;;;;;;;;5009083;28;20433;-87
2023/04/14 12:35:52;;;;;;;4.95;2.45;;;;;;;;;;5015572;28;20414;-81
2023/04/14 12:38:18;;;;;;;6.28;2.78;;;;;;;;;;4998531;28;20402;-81
2023/04/14 12:40:46;;;;;;;9.80;2.50;;;;;;;;;;5015693;28;20169;-81
2023/04/14 12:43:16;;;;;;;5.87;2.53;;;;;;;;;;5000664;28;20185;-81
2023/04/14 12:45:42;;;;;;;6.35;2.55;;;;;;;;;;4999192;28;20500;-81
2023/04/14 12:48:08;;;;;;;5.07;2.70;;;;;;;;;;5017657;28;20429;-87
2023/04/14 12:50:34;;;;;;;5.90;2.43;;;;;;;;;;5003680;28;20195;-87
2023/04/14 12:53:01;;;;;;;6.63;2.50;;;;;;;;;;5036724;28;20416;-87
2023/04/14 12:55:28;;;;;;;8.00;2.80;;;;;;;;;;5004248;28;20420;-87
2023/04/14 12:57:54;;;;;;;5.88;2.30;;;;;;;;;;5017633;28;20438;-86
2023/04/14 13:00:21;;;;;;;6.00;2.90;;;;;;;;;;5025020;28;20428;-89
2023/04/14 13:02:47;;;;;;;8.20;2.97;;;;;;;;;;5015066;28;20489;-80
2023/04/14 13:05:13;;;;;;;6.18;2.80;;;;;;;;;;5017509;28;20421;-81
2023/04/14 13:07:39;;;;;;;6.60;2.80;;;;;;;;;;5006246;28;20600;-81
2023/04/14 13:10:05;;;;;;;5.35;2.78;;;;;;;;;;4998987;28;20510;-81
2023/04/14 13:12:31;;;;;;;6.30;2.55;;;;;;;;;;5021274;28;20430;-81
2023/04/14 13:14:57;;;;;;;6.30;2.33;;;;;;;;;;5006158;28;20509;-81
2023/04/14 13:17:24;;;;;;;5.83;2.03;;;;;;;;;;5008943;28;20181;-81
2023/04/14 13:19:50;;;;;;;6.85;2.67;;;;;;;;;;5018130;28;20429;-83
2023/04/14 13:22:16;;;;;;;5.30;2.50;;;;;;;;;;5002610;28;20271;-83
2023/04/14 13:24:42;;;;;;;6.40;2.50;;;;;;;;;;5015515;28;20221;-83
2023/04/14 13:27:08;;;;;;;5.63;2.80;;;;;;;;;;4998753;28;20418;-83
2023/04/14 13:29:34;;;;;;;6.40;2.83;;;;;;;;;;4991628;28;20471;-82
2023/04/14 13:32:00;;;;;;;7.85;2.90;;;;;;;;;;4998807;28;20415;-82
2023/04/14 13:34:27;;;;;;;7.20;2.70;;;;;;;;;;4981955;28;20438;-80
2023/04/14 13:36:54;;;;;;;6.10;2.80;;;;;;;;;;5006237;28;20476;-80
2023/04/14 13:39:21;;;;;;;6.10;2.70;;;;;;;;;;5012620;28;20422;-80
2023/04/14 13:41:48;;;;;;;5.43;2.70;;;;;;;;;;5013252;28;20419;-80
2023/04/14 13:44:14;;;;;;;6.85;2.70;;;;;;;;;;5009079;28;20517;-80
2023/04/14 13:46:40;;;;;;;6.35;2.70;;;;;;;;;;5013156;28;20452;-79
2023/04/14 13:49:06;;;;;;;5.70;2.53;;;;;;;;;;5017671;28;20418;-81
2023/04/14 13:51:32;;;;;;;7.03;2.40;;;;;;;;;;5035762;28;20419;-83
2023/04/14 13:53:58;;;;;;;6.43;2.67;;;;;;;;;;5002253;28;20218;-83
2023/04/14 13:56:26;;;;;;;8.00;2.60;;;;;;;;;;4987643;28;20219;-83
2023/04/14 13:58:52;;;;;;;6.50;2.57;;;;;;;;;;5017782;28;20208;-80
2023/04/14 14:01:18;;;;;;;5.95;2.78;;;;;;;;;;4995323;28;20431;-81
2023/04/14 14:03:44;;;;;;;5.38;2.50;;;;;;;;;;4995213;28;20439;-80
2023/04/14 14:06:10;;;;;;;5.32;2.80;;;;;;;;;;4997645;28;20406;-80
2023/04/14 14:08:36;;;;;;;5.67;2.07;;;;;;;;;;5017673;28;20263;-80
2023/04/14 14:11:06;;;;;;;5.43;2.73;;;;;;;;;;5035328;28;20250;-81
2023/04/14 14:13:32;;;;;;;6.77;2.60;;;;;;;;;;5014286;28;20205;-81
2023/04/14 14:15:58;;;;;;;5.75;2.58;;;;;;;;;;4997701;28;20426;-81
2023/04/14 14:18:26;;;;;;;7.63;2.30;;;;;;;;;;4998017;28;20417;-80
2023/04/14 14:20:52;;;;;;;5.68;2.53;;;;;;;;;;5016168;28;20425;-81
2023/04/14 14:23:18;;;;;;;5.28;2.50;;;;;;;;;;5016896;28;20483;-80
2023/04/14 14:25:44;;;;;;;4.20;2.50;;;;;;;;;;5015854;28;20184;-81
2023/04/14 14:28:11;;;;;;;4.83;2.30;;;;;;;;;;5017108;28;20208;-81
2023/04/14 14:30:37;;;;;;;4.38;2.20;;;;;;;;;;4991855;28;20427;-81
2023/04/14 14:33:03;;;;;;;5.38;2.33;;;;;;;;;;5002858;28;20560;-81
2023/04/14 14:35:29;;;;;;;4.43;2.00;;;;;;;;;;4997595;28;20212;-81
2023/04/14 14:37:55;;;;;;;5.40;2.30;;;;;;;;;;5001191;28;20443;-81
2023/04/14 14:40:21;;;;;;;6.38;2.53;;;;;;;;;;5015844;28;20809;-81
2023/04/14 14:42:47;;;;;;;5.28;2.60;;;;;;;;;;4998395;28;20485;-81